Relevés horaires Gösgen (Suisse)


Relevés horaires à Gösgen - Lundi 09 Juill. 2018
Heure UTC1 Température [°C] Vent [km/h] Hum. [%] Pres.4 [hPa] Visi. [Km] Nébu. [octa] Préc.5 [mm] Cond.
2m. Res. Ros. Dir.2 Vit. Moy. Raf.3
23:00 17.8 17.8 12.9 OSO 0.0 -- -- 73 1017.7 -- -- -- --
22:00 18.9 18.9 12.3 SSE 1.9 -- -- 66 1017.9 -- -- -- --
21:00 18.8 18.8 12.9 O 1.9 -- 24.1 69 1017.6(0.5/3h) -- -- -- --
20:00 21.9 21.9 11.7 NNO 1.9 -- -- 52 1016.9 -- -- -- --
19:00 23.8 23.8 10.4 NNO 7.4 -- -- 43 1016.4 -- -- -- --
18:00 25.3 25.3 11.0 NNO 5.6 -- 27.8 41 1016(-0.5/3h) -- -- 0/12h
--
17:00 26.1 26.1 11.5 NNO 5.6 -- -- 40 1015.9 -- -- -- --
16:00 26.9 26.9 12.0 O 13.0 -- -- 40 1016 -- -- -- --
15:00 27.1 27.1 9.2 NO 13.0 -- 25.9 32 1016.3(-0.8/3h) -- -- -- --
14:00 27.5 27.5 9.2 NO 9.3 -- -- 32 1016.4 -- -- -- --
13:00 27.5 27.5 9.9 NNO 14.8 -- -- 33 1016.7 -- -- -- --
12:00 24.8 24.8 9.8 N 11.1 -- 27.8 39 1017.4(-0.9/3h) -- -- 0/6h
--
11:00 26.1 26.1 12.7 NE 11.1 -- -- 43 1017.7 -- -- -- --
10:00 24.6 24.6 12.6 E 9.3 -- -- 47 1018.1 -- -- -- --
09:00 23.5 23.5 10.6 E 7.4 -- 18.5 44 1018.6(-0.4/3h) -- -- -- --
08:00 22.0 22.0 9.4 ENE 9.3 -- -- 45 1019.1 -- -- -- --
07:00 20.3 20.3 12.4 ESE 5.6 -- -- 60 1019.6 -- -- -- --
06:00 17.1 17.1 11.2 S 0.0 -- 5.6 68 1020(0.0/3h) -- -- 0/12h
0/24h
--
05:00 14.7 14.7 12.3 NNO 0.0 -- -- 86 1020.5 -- -- -- --
04:00 13.5 13.5 12.2 NE 0.0 -- -- 92 1020.5 -- -- -- --
03:00 13.6 13.6 12.9 O 3.7 -- 5.6 96 1020.6(-0.6/3h) -- -- -- --
02:00 15.4 15.4 13.6 S 1.9 -- -- 89 1020.4 -- -- -- --
01:00 16.3 16.3 14.2 NNO 0.0 -- -- 87 1020.8 -- -- -- --
00:00 16.3 16.3 14.1 O 0.0 -- 22.2 87 1020.8(-0.1/3h) -- -- 0/6h
--

1 Coordinated Universal Time. Actuellement il est 07:00 locale et 06:00 UTC.

2 Le vent souffle depuis la direction indiquée vers la direction oposée.

3 Les rafales max. sont disponible 40 min après l'heure du relevé.

4 Pour les stations d'altitude (plus de 600m) le géopotentiel du niveau le plus proche de la pression obligatoire est indiqué.

5 Les stations disposant d'un diffuseur peuvent indiquer "trace". Cela signifie que des précipitations ont touchés le sol mais que la quantité est inférieure à 0.1 mm.

Récapitulatif de la journée
Température [°C] Vent [km/h] Ensoleillement4 [h] Precipitations totale5 [mm] Pression [Hpa]
Min1 Max.2 Moy.3 Max. Min Max.
13.4 27.9 0 27.8 12 h 42 min 0 1015.9 1020.8

1 Température minimale relevée entre 18:00 UTC la veille et 18:00 UTC le jour donné.

2 Température maximale relevée entre 06:00 UTC le jour donné et 06:00 UTC le lendemain.

3 Vent moyen de la journée basé sur les relevés horaires.

4 Ensoleillement en heures relevé entre 06:00 UTC la veille et 06:00 UTC le jour donné.

5 Précipitations totales tombées entre 06:00 UTC la jour donné et 06:00 UTC le lendemain.

Graphiques horaires